»·PEaware :: AAL115 KSFO-KBFL

AAL115 :: KSFO-KBFL

FLIGHT INFORMATION

Flight Status: Arrived
Operator:
American Airlines
More flights by this operator :: More flights under this callsign
Pilot: Sergei F. (8485)
Aircraft: BOEING 757-200
(B752)
More flights by this aircraft type
Origin: KSFO San Francisco Intl
United States
Destination: KBFL Meadows
United States
More flights between these airports :: More routes between these airports
Route: +SSTIK3 NTELL CZQ V23 EHF
File this flight plan on PilotEdge
Remarks:
Altitude:
(Current/Filed)
210ft
Speed:
(Current/Filed)
300kts
Departed: 02-Jan-18 06:35 PM
Arrived: 02-Jan-18 07:35 PM
Distance/Time
Traveled:
293nm/1:00
Distance/Time
To Go:
Arrived

Flight Plot

Page will automatically refresh every two minutes.

Flight plan parsing failed; only flown route is shown


Map Options




Map Legend


Flown Route
Filed Route
Departure Airport
Arrival Airport
Navaid (VOR, NDB)
Fix

Horizontal Profiles

Position Reports

Time Latitude Longitude Heading Altitude Ground
Speed
02-Jan-18 18:06 37.617869 -122.380572 257 34ft 0kts
02-Jan-18 18:07 37.617869 -122.380572 257 34ft 0kts
02-Jan-18 18:08 37.617869 -122.380572 257 34ft 0kts
02-Jan-18 18:09 37.617869 -122.380572 257 34ft 0kts
02-Jan-18 18:10 37.617869 -122.380572 257 34ft 0kts
02-Jan-18 18:11 37.617869 -122.380572 257 34ft 0kts
02-Jan-18 18:12 37.617869 -122.380572 257 34ft 0kts
02-Jan-18 18:13 37.617869 -122.380572 257 34ft 0kts
02-Jan-18 18:14 37.617869 -122.380572 257 34ft 0kts
02-Jan-18 18:15 37.617869 -122.380572 257 34ft 0kts
02-Jan-18 18:16 37.617869 -122.380572 257 34ft 0kts
02-Jan-18 18:17 37.617869 -122.380572 257 34ft 0kts
02-Jan-18 18:18 37.617869 -122.380572 257 34ft 0kts
02-Jan-18 18:19 37.617869 -122.380572 257 34ft 0kts
02-Jan-18 18:20 37.617869 -122.380572 257 34ft 0kts
02-Jan-18 18:21 37.617869 -122.380572 257 34ft 0kts
02-Jan-18 18:22 37.617869 -122.380573 257 34ft 0kts
02-Jan-18 18:23 37.617869 -122.380573 257 34ft 0kts
02-Jan-18 18:24 37.617869 -122.380573 257 34ft 0kts
02-Jan-18 18:25 37.617869 -122.380573 257 34ft 0kts
02-Jan-18 18:26 37.617869 -122.380573 257 34ft 0kts
02-Jan-18 18:27 37.617887 -122.380473 257 34ft 1kts
02-Jan-18 18:28 37.618039 -122.379763 224 34ft 1kts
02-Jan-18 18:29 37.618290 -122.379714 153 34ft 0kts
02-Jan-18 18:30 37.618291 -122.379714 153 34ft 0kts
02-Jan-18 18:31 37.618290 -122.379714 153 34ft 0kts
02-Jan-18 18:32 37.618290 -122.379714 153 34ft 0kts
02-Jan-18 18:33 37.617847 -122.379516 168 33ft 0kts
02-Jan-18 18:34 37.616713 -122.379627 199 34ft 4kts
02-Jan-18 18:35 37.615399 -122.380440 207 34ft 6kts
02-Jan-18 18:36 37.613082 -122.381974 208 34ft 12kts
02-Jan-18 18:37 37.610445 -122.383742 210 34ft 9kts
02-Jan-18 18:38 37.608524 -122.383982 117 34ft 2kts
02-Jan-18 18:39 37.608224 -122.383281 119 34ft 5kts
02-Jan-18 18:40 37.608491 -122.382519 25 33ft 0kts
02-Jan-18 18:41 37.638092 -122.363074 22 1361ft 168kts
02-Jan-18 18:42 37.678427 -122.363435 332 3185ft 184kts
02-Jan-18 18:43 37.666262 -122.415030 195 4829ft 227kts
02-Jan-18 18:44 37.602905 -122.436343 194 7144ft 256kts
02-Jan-18 18:45 37.531700 -122.460429 193 9632ft 272kts
02-Jan-18 18:46 37.466478 -122.431658 128 12408ft 278kts
02-Jan-18 18:47 37.418569 -122.350513 125 14517ft 303kts
02-Jan-18 18:48 37.393284 -122.245794 107 16544ft 327kts
02-Jan-18 18:49 37.370714 -122.132705 108 18538ft 347kts
02-Jan-18 18:50 37.347052 -122.014338 109 20504ft 365kts
02-Jan-18 18:51 37.322301 -121.891386 109 21172ft 397kts
02-Jan-18 18:52 37.295111 -121.756699 109 21161ft 398kts
02-Jan-18 18:53 37.268181 -121.624239 109 21153ft 391kts
02-Jan-18 18:54 37.241147 -121.492287 109 21155ft 396kts
02-Jan-18 18:55 37.213580 -121.358433 109 21162ft 395kts
02-Jan-18 18:56 37.186336 -121.227006 110 21170ft 395kts
02-Jan-18 18:57 37.158429 -121.093190 110 21178ft 399kts
02-Jan-18 18:58 37.130124 -120.958281 110 21194ft 403kts
02-Jan-18 18:59 37.101444 -120.822380 110 21191ft 401kts
02-Jan-18 19:00 37.072906 -120.688013 110 21188ft 399kts
02-Jan-18 19:01 37.046122 -120.562647 110 21188ft 397kts
02-Jan-18 19:02 37.017581 -120.429815 110 21189ft 394kts
02-Jan-18 19:03 36.989352 -120.299223 111 21198ft 391kts
02-Jan-18 19:04 36.960882 -120.168290 111 21204ft 389kts
02-Jan-18 19:05 36.932537 -120.038670 111 21202ft 389kts
02-Jan-18 19:06 36.903827 -119.908120 111 21198ft 388kts
02-Jan-18 19:07 36.849546 -119.801870 149 21211ft 365kts
02-Jan-18 19:08 36.759233 -119.750121 159 21204ft 361kts
02-Jan-18 19:09 36.666620 -119.701672 159 20476ft 364kts
02-Jan-18 19:10 36.575013 -119.654081 158 18475ft 351kts
02-Jan-18 19:11 36.487050 -119.608528 157 16477ft 340kts
02-Jan-18 19:12 36.400826 -119.563985 157 14471ft 335kts
02-Jan-18 19:13 36.319995 -119.522386 156 13990ft 287kts
02-Jan-18 19:14 36.248649 -119.485768 156 13999ft 277kts
02-Jan-18 19:15 36.177389 -119.449270 156 14000ft 277kts
02-Jan-18 19:16 36.106101 -119.412830 156 14000ft 277kts
02-Jan-18 19:17 36.029909 -119.373743 156 12574ft 298kts
02-Jan-18 19:18 35.954556 -119.335118 157 11170ft 293kts
02-Jan-18 19:19 35.883870 -119.299235 157 9852ft 289kts
02-Jan-18 19:20 35.811382 -119.263992 157 8846ft 274kts
02-Jan-18 19:21 35.741970 -119.230325 157 7840ft 264kts
02-Jan-18 19:22 35.675003 -119.197723 157 6839ft 257kts
02-Jan-18 19:23 35.609672 -119.165606 157 5983ft 245kts
02-Jan-18 19:24 35.549253 -119.135832 157 5991ft 234kts
02-Jan-18 19:25 35.489159 -119.106227 157 5982ft 224kts
02-Jan-18 19:26 35.435021 -119.079668 157 5990ft 209kts
02-Jan-18 19:27 35.381849 -119.053612 157 5977ft 192kts
02-Jan-18 19:28 35.332504 -119.029512 157 5991ft 191kts
02-Jan-18 19:29 35.285060 -119.000175 142 5696ft 193kts
02-Jan-18 19:30 35.242765 -118.961108 142 4704ft 191kts
02-Jan-18 19:31 35.201517 -118.922678 142 4491ft 185kts
02-Jan-18 19:32 35.189511 -118.872996 52 4494ft 184kts
02-Jan-18 19:33 35.221753 -118.829249 10 4492ft 169kts
02-Jan-18 19:34 35.261978 -118.849773 315 3681ft 147kts
02-Jan-18 19:35 35.290511 -118.883682 315 3001ft 140kts
02-Jan-18 19:36 35.318560 -118.917261 315 2986ft 142kts
02-Jan-18 19:37 35.346887 -118.951299 315 2804ft 142kts
02-Jan-18 19:38 35.375737 -118.985995 315 2042ft 145kts
02-Jan-18 19:39 35.403647 -119.019430 314 1254ft 137kts
02-Jan-18 19:40 35.430363 -119.051931 314 553ft 133kts
02-Jan-18 19:41 35.441966 -119.065831 337 507ft 6kts
02-Jan-18 19:42 35.442990 -119.065870 31 509ft 3kts
02-Jan-18 19:43 35.443049 -119.065814 40 510ft 0kts
02-Jan-18 19:44 35.443158 -119.065434 100 510ft 4kts
02-Jan-18 19:45 35.441717 -119.063481 135 507ft 11kts
02-Jan-18 19:46 35.439139 -119.060366 135 505ft 16kts
02-Jan-18 19:47 35.437386 -119.057690 68 504ft 4kts
02-Jan-18 19:48 35.437303 -119.056197 132 506ft 5kts
02-Jan-18 19:49 35.437116 -119.055107 84 508ft 0kts
02-Jan-18 19:50 35.437116 -119.055107 84 508ft 0kts
02-Jan-18 19:51 35.437116 -119.055107 84 508ft 0kts
02-Jan-18 19:52 35.437116 -119.055107 84 508ft 0kts
02-Jan-18 19:53 35.437116 -119.055107 84 508ft 0kts
02-Jan-18 19:56 33.939741 -118.404136 355 125ft 0kts

Navigation Log

Ident Type
Flight plan parsing failed, navigation log unavailable